• Join FlightAware (Why Join?)
  • Login
  • US Flag 
10:51AM EDT


 

Airport Tracker/Info


-or-


 

Live Flight TrackerFlight Track Log ✈ DAL2082 ✈ 26-Aug-2013 ✈ KATL - KMHT

Flight Track Log - Related Links

Times and Time Zones

All times are in EDT time to prevent confusion due to time zone crossing. See the DAL2082 flight status page for this flight to view local times or setup timezone preferences in your user account.

Time Position Orientation Groundspeed Altitude Reporting Facility
EDT Latitude Longitude Course Direction KTS MPH feet Rate Location/Type
02:04PM 33.6500 -84.3833 North 174 200 2,400  Level Atlanta TRACON
02:05PM 33.6500 -84.3167 90° East 238 274 3,800 2,400 Climbing Atlanta TRACON
02:06PM 33.6833 -84.2167 68° East 259 298 7,300 2,760 Climbing Atlanta TRACON
02:07PM 33.7333 -84.1833 29° Northeast 284 327 9,700 1,320 Climbing Atlanta TRACON
02:08PM 33.9244 -84.2577 320° Northwest  Level FlightAware Approximate
02:08PM 33.8167 -84.1833 360° North 327 376 10,000  Level Atlanta TRACON
02:09PM 34.0423 -84.2667 North  Level FlightAware Approximate
02:09PM 33.9000 -84.2500 326° Northwest 384 442 10,800  Level Atlanta TRACON
02:10PM 34.1629 -84.2667 North  Level FlightAware Approximate
02:11PM 34.0653 -84.2769 352° North 386 444 14,500  Level Atlanta Center
02:12PM 34.1969 -84.2775 360° North 400 460 17,100 2,100 Climbing Atlanta Center
02:13PM 34.3136 -84.2728 North 410 472 18,700 1,620 Climbing Atlanta Center
02:14PM 34.4286 -84.2453 11° North 421 484 20,400 1,560 Climbing Atlanta Center
02:15PM 34.5497 -84.2153 12° North 433 498 21,900 1,440 Climbing Atlanta Center
02:16PM 34.6686 -84.1928 North 432 497 23,300 1,500 Climbing Atlanta Center
02:17PM 34.7939 -84.1603 12° North 432 497 24,900 1,800 Climbing Atlanta Center
02:18PM 34.9150 -84.1325 11° North 437 503 26,900 1,680 Climbing Atlanta Center
02:19PM 35.0339 -84.1047 11° North 437 503 28,300 1,620 Climbing Atlanta Center
02:20PM 35.1528 -84.0744 12° North 437 503 30,200 1,560 Climbing Atlanta Center
02:21PM 35.2697 -84.0464 11° North 430 495 31,500 1,140 Climbing Atlanta Center
02:22PM 35.3867 -84.0183 11° North 425 489 32,500 960 Climbing Atlanta Center
02:23PM 35.5033 -83.9878 12° North 425 489 33,500 720 Climbing Atlanta Center
02:24PM 35.6181 -83.9622 10° North 425 489 34,000 240 Climbing Atlanta Center
02:25PM 35.7308 -83.9339 12° North 425 489 34,000  Level Atlanta Center
02:26PM 35.8456 -83.9081 10° North 420 483 34,000  Level Atlanta Center
02:27PM 35.9558 -83.8617 19° North 413 475 34,000  Level Atlanta Center
02:28PM 36.0622 -83.7922 28° Northeast 413 475 34,000  Level Atlanta Center
02:29PM 36.1253 -83.7522 27° Northeast 424 488 34,000  Level Indianapolis Center
02:30PM 36.2300 -83.6861 27° Northeast 423 487 34,000  Level Indianapolis Center
02:31PM 36.3342 -83.6192 27° Northeast 422 486 34,000  Level Indianapolis Center
02:32PM 36.4406 -83.5556 26° Northeast 424 488 34,000  Level Indianapolis Center
02:33PM 36.5661 -83.4817 25° Northeast 425 489 34,000  Level Indianapolis Center
02:34PM 36.6728 -83.4161 26° Northeast 425 489 34,000  Level Indianapolis Center
02:35PM 36.7808 -83.3550 24° Northeast 423 487 34,000  Level Indianapolis Center
02:36PM 36.8914 -83.2958 23° Northeast 430 495 34,000 60 Level Indianapolis Center
02:37PM 37.0014 -83.2361 23° Northeast 425 489 34,200 480 Climbing Indianapolis Center
02:38PM 37.0964 -83.1431 38° Northeast 430 495 35,000 360 Climbing Indianapolis Center
02:39PM 37.1819 -83.0356 45° Northeast 430 495 35,000  Level Indianapolis Center
02:40PM 37.2667 -82.9283 45° Northeast 428 493 35,000  Level Indianapolis Center
02:41PM 37.3528 -82.8219 44° Northeast 430 495 35,000  Level Indianapolis Center
02:42PM 37.4531 -82.6983 44° Northeast 431 496 35,000  Level Indianapolis Center
02:43PM 37.5383 -82.5931 44° Northeast 428 493 35,000  Level Indianapolis Center
02:44PM 37.6225 -82.4856 45° Northeast 430 495 35,000  Level Indianapolis Center
02:45PM 37.7078 -82.3789 45° Northeast 430 495 35,000  Level Indianapolis Center
02:46PM 37.7914 -82.2706 46° Northeast 428 493 35,000  Level Indianapolis Center
02:47PM 37.8761 -82.1631 45° Northeast 429 494 35,000  Level Indianapolis Center
02:48PM 37.9708 -82.0397 46° Northeast 427 491 35,000  Level Indianapolis Center
02:49PM 38.0553 -81.9319 45° Northeast 431 496 35,000  Level Indianapolis Center
02:50PM 38.1389 -81.8231 46° Northeast 431 496 35,000  Level Indianapolis Center
02:51PM 38.2222 -81.7161 45° Northeast 429 494 35,000  Level Indianapolis Center
02:52PM 38.3044 -81.6072 46° Northeast 429 494 35,000  Level Indianapolis Center
02:53PM 38.3867 -81.4981 46° Northeast 430 495 35,000  Level Indianapolis Center
02:54PM 38.4858 -81.3672 46° Northeast 431 496 35,000  Level Indianapolis Center
02:56PM 38.5681 -81.2586 46° Northeast 431 496 35,000  Level Indianapolis Center
02:57PM 38.6497 -81.1508 46° Northeast 428 493 35,000  Level Indianapolis Center
02:58PM 38.7308 -81.0411 47° Northeast 428 493 35,000  Level Indianapolis Center
02:59PM 38.8117 -80.9322 46° Northeast 426 490 35,000  Level Indianapolis Center
03:00PM 38.9122 -80.7978 46° Northeast 435 501 35,000  Level Indianapolis Center
03:01PM 38.9997 -80.6944 43° Northeast 430 495 35,000  Level Indianapolis Center
03:02PM 39.1000 -80.6092 33° Northeast 430 495 35,000  Level Indianapolis Center
03:03PM 39.2006 -80.5222 34° Northeast 435 501 35,000  Level Indianapolis Center
03:04PM 39.3017 -80.4353 34° Northeast 437 503 35,000  Level Indianapolis Center
03:05PM 39.4031 -80.3500 33° Northeast 436 502 35,000  Level Indianapolis Center
03:06PM 39.5053 -80.2156 45° Northeast 440 506 35,000  Level Indianapolis Center
03:07PM 39.5722 -80.1036 52° Northeast 425 489 35,000  Level Cleveland Center
03:08PM 39.6444 -79.9764 54° Northeast 435 501 35,000  Level Cleveland Center
03:09PM 39.7147 -79.8464 55° Northeast 440 506 35,000  Level Cleveland Center
03:10PM 39.7844 -79.7186 55° Northeast 440 506 35,000  Level Cleveland Center
03:11PM 39.8647 -79.5717 55° Northeast 441 507 35,000  Level Cleveland Center
03:12PM 39.9386 -79.4431 53° Northeast 441 507 35,000  Level Cleveland Center
03:13PM 40.0081 -79.3119 55° Northeast 441 507 35,000  Level Cleveland Center
03:14PM 40.0772 -79.1831 55° Northeast 434 499 35,000  Level Cleveland Center
03:15PM 40.1486 -79.0511 55° Northeast 434 499 35,000  Level Cleveland Center
03:16PM 40.2158 -78.9300 54° Northeast 434 499 35,000  Level Cleveland Center
03:17PM 40.2847 -78.8003 55° Northeast 434 499 35,000  Level Cleveland Center
03:18PM 40.3556 -78.6678 55° Northeast 434 499 35,000  Level Cleveland Center
03:20PM 40.4869 -78.4208 55° Northeast 449 517 35,000  Level New York Center
03:21PM 40.5581 -78.2867 55° Northeast 444 511 35,000  Level New York Center
03:22PM 40.6269 -78.1547 55° Northeast 444 511 35,000  Level New York Center
03:23PM 40.7069 -78.0044 55° Northeast 444 511 35,000  Level New York Center
03:24PM 40.7778 -77.8692 55° Northeast 444 511 35,000  Level New York Center
03:25PM 40.8483 -77.7311 56° Northeast 439 505 35,000  Level New York Center
03:26PM 40.9192 -77.5928 56° Northeast 444 511 35,000  Level New York Center
03:27PM 40.9914 -77.4542 55° Northeast 444 511 35,000  Level New York Center
03:28PM 41.0525 -77.3336 56° Northeast 444 511 35,000  Level New York Center
03:29PM 41.1203 -77.1969 57° Northeast 439 505 35,000  Level New York Center
03:30PM 41.1883 -77.0572 57° Northeast 439 505 35,000  Level New York Center
03:31PM 41.2581 -76.9203 56° Northeast 439 505 35,000  Level New York Center
03:32PM 41.3297 -76.7831 55° Northeast 439 505 35,000  Level New York Center
03:33PM 41.3992 -76.6425 57° Northeast 439 505 35,000  Level New York Center
03:34PM 41.4728 -76.5022 55° Northeast 444 511 35,000  Level New York Center
03:35PM 41.5422 -76.3531 58° Northeast 454 522 35,000  Level New York Center
03:36PM 41.6114 -76.2117 57° Northeast 454 522 35,000  Level New York Center
03:37PM 41.6781 -76.0700 58° Northeast 454 522 35,000  Level New York Center
03:38PM 41.7514 -75.9200 57° Northeast 454 522 35,000  Level New York Center
03:40PM 41.9169 -75.5819 57° Northeast 461 531 35,000  Level Boston Center
03:41PM 41.9833 -75.4428 57° Northeast 456 525 35,000  Level Boston Center
03:42PM 42.0517 -75.3006 57° Northeast 451 519 35,000  Level Boston Center
03:43PM 42.1197 -75.1581 57° Northeast 451 519 35,000  Level Boston Center
03:44PM 42.1836 -75.0178 58° Northeast 444 511 35,000 -600 Level Boston Center
03:45PM 42.2514 -74.8775 57° Northeast 444 511 33,900 -1,800 Descending Boston Center
03:46PM 42.3189 -74.7342 57° Northeast 444 511 31,500 -2,460 Descending Boston Center
03:47PM 42.3950 -74.5711 58° Northeast 456 525 29,000 -1,260 Descending Boston Center
03:48PM 42.4708 -74.4161 56° Northeast 466 536 29,000 -360 Level Boston Center
03:49PM 42.5400 -74.2633 58° Northeast 471 542 28,300 -960 Descending Boston Center
03:50PM 42.6069 -74.1100 59° Northeast 465 535 27,200 -960 Descending Boston Center
03:51PM 42.6614 -73.9478 65° Northeast 471 542 26,400 -900 Descending Boston Center
03:52PM 42.6781 -73.7675 83° East 462 532 25,500 -840 Descending Boston Center
03:53PM 42.6947 -73.5983 82° East 462 532 24,800 -960 Descending Boston Center
03:54PM 42.7108 -73.4261 83° East 462 532 23,600 -1,020 Descending Boston Center
03:55PM 42.7247 -73.2569 84° East 462 532 22,900 -960 Descending Boston Center
03:56PM 42.7403 -73.0903 83° East 456 525 21,800 -1,440 Descending Boston Center
03:57PM 42.7517 -72.9150 85° East 456 525 20,000 -1,440 Descending Boston Center
03:58PM 42.7625 -72.7739 84° East 450 518 18,900 -1,620 Descending Boston Center
03:59PM 42.7753 -72.6211 83° East 423 487 16,800 -1,500 Descending Boston Center
04:00PM 42.7858 -72.4711 84° East 408 470 16,000 -1,800 Descending Boston Center
04:01PM 42.7942 -72.3242 86° East 397 457 13,300 -2,460 Descending Boston Center
04:02PM 42.8044 -72.1656 85° East 378 435 11,200 -1,620 Descending Boston Center
04:03PM 42.8103 -72.0525 86° East 344 396 10,100 -1,140 Descending Boston Center
04:04PM 42.8203 -71.9306 84° East 304 350 8,900 -1,200 Descending Boston Center
04:05PM 42.8156 -71.8286 94° East 291 335 7,800 -1,500 Descending Boston Center
04:06PM 42.8022 -71.7072 98° East 291 335 6,000 -1,680 Descending Boston Center
04:07PM 42.7956 -71.6111 95° East 291 335 4,500 -1,200 Descending Boston Center
04:08PM 42.7925 -71.5064 92° East 267 307 3,600 -960 Descending Boston Center
04:09PM 42.8086 -71.4269 75° East 232 267 2,600 -960 Descending Boston Center
04:10PM 42.8478 -71.3781 42° Northeast 175 201 1,800 -780 Descending Boston Center
04:11PM 42.8814 -71.4031 331° Northwest 134 154 1,100 -720 Descending Boston Center
04:12PM 42.9189 -71.4281 334° Northwest 134 154 400 -360 Descending Boston Center
04:13PM 42.9464 -71.4444 336° Northwest 134 154 400 4,320 Level Boston Center
04:14PM 42.9778 -71.4639 336° Northwest 134 154 9,000 4,140 Climbing Boston Center
04:15PM 43.0092 -71.4861 333° Northwest 134 154 9,000  Level Boston Center
04:16PM 43.0406 -71.5056 336° Northwest 134 154 9,000  Level Boston Center
04:18PM 42.9328 -71.4358 155° Southeast  Level Estimated
04:25PM 42.9328 -71.4358 180° South  Level Estimated
04:26PM 42.9328 -71.4358 180° South  Level Estimated
04:27PM 42.9328 -71.4358 180° South  Level Estimated